Archie, Missouri
Current Conditions -  °F | °C
As of 2:53 PM on Friday 28 Nov 2014 (Local Time) from KOJC Reporting Station
Clear Clear  
Wind Chill: 59°   Ceiling: Unl
Heat Index: 59°   Visibility: 10mi
Dew Point: 33°   Wind: 14mph
Humidity: 38%   Direction: 210°SSW
Pressure: 29.81"   Gusts: 21mph
Location:  38.48°N, 94.35°W
Report Text: KOJC 282053Z 21012G18KT 10SM CLR 15/01 A2981 RMK AO2 SLP095 T01500006 56029
Loading
Personal Weather Stations






























Interactive Weather Map New forecast layout! Learn more

10-Day Weather Forecast

Advertisements
Track Severe Weather on mobile